x

Bodega Bay - 48nm Nnw Of San Francisco, Ca (46013) Wave Buoy

7:50pm - Tue 9th Feb 2016 All times are PST. -8 hours from GMT.

  • Sig Wave height 5.9ft
  • Peak Period 14s
  • Average Period 11s
  • Wind
    9mph, 11mph gusts
  • Sea Temp 55°f
  • Air Temp 57°f
  • Sea Pressure 1020.3mb
  • Bodega Bay - 48nm Nnw Of San Francisco, Ca
  • Bodega Bay - 48nm Nnw Of San Francisco, Ca

More Historic Weather Station data

Upgrade to MSW Pro to gain access to the past 30 days of data for over 8000 Wavebouys and Weather Stations around the globe.

Join Pro

Comparision Forecast

View Surf forecast
   
Tue 02/09 7:50pm 6ft 14s 11s 9 11 mph 1020.3mb 55f 57f
6:50pm 6ft 13s 11s 2 4 mph 1020.8mb 55f 57f
5:50pm 5.5ft 13s 11s 4
mph
1020.7mb 55f 56f
4:50pm 6ft 14s 11s 9 11 mph 1020.9mb 56f 57f
3:50pm 6ft 14s 11s 7 9 mph 1021.4mb 56f 56f
2:50pm 5ft 14s 10s 11 13 mph 1021.4mb 56f 57f
1:50pm 5.5ft 14s 9s 7 9 mph 1021.1mb 55f 58f
12:50pm 6ft 15s 9s 7 9 mph 1020.8mb 55f 60f
11:50am 6ft 14s 8s 13 18 mph 1020.9mb 55f 60f
10:50am 6ft 15s 8s 18 22 mph 1021.2mb 55f 58f
9:50am 6ft 14s 8s 18 20 mph 1021.7mb 55f 57f
8:50am 6.5ft 14s 9s 16 18 mph 1022.1mb 55f 57f
7:50am 6ft 14s 9s 16 18 mph 1021.6mb 55f 56f
6:50am 7ft 14s 11s 13 18 mph 1021.2mb 55f 57f
5:50am 7.5ft 15s 11s 9 11 mph 1021.2mb 55f 57f
4:50am 7ft 14s 10s 9 13 mph 1020.9mb 55f 57f
3:50am 8.5ft 14s 11s 13 18 mph 1020.3mb 55f 58f
2:50am 7ft 15s 11s 13 16 mph 1020.7mb 55f 58f
1:50am 7ft 14s 11s 13 16 mph 1020.7mb 55f 58f
12:50am 8ft 15s 12s 11 16 mph 1020.8mb 55f 59f
Mon 02/08 11:50pm 9ft 15s 12s 11 16 mph 1020.7mb 55f 59f
10:50pm 7ft 15s 12s 11 16 mph 1020.7mb 55f 59f
9:50pm 6ft 16s 12s 11 13 mph 1020.9mb 55f 59f
8:50pm 6ft 16s 11s 11 13 mph 1020.9mb 55f 59f
7:50pm 6ft 16s 11s 4
mph
1021.1mb 55f 59f
6:50pm 7.5ft 16s 12s 2 7 mph 1020.7mb 55f 63f
5:50pm 7ft 16s 12s 4 7 mph 1020.5mb 56f 62f
4:50pm 7ft 16s 11s 4 7 mph 1020.5mb 56f 62f
3:50pm 7ft 16s 12s 7 9 mph 1020.3mb 56f 61f
2:50pm 6ft 16s 10s 7
mph
1020.4mb 55f 60f
1:50pm 6ft 17s 10s 9 11 mph 1020.7mb 55f 61f
12:50pm 6ft 17s 10s 13 16 mph 1021mb 55f 61f
11:50am 6ft 17s 10s 13
mph
1022mb 55f 60f
10:50am 5ft 17s 8s 13 16 mph 1022.4mb 55f 59f
9:50am 5ft 11s 7s 13
mph
1022.3mb 55f 57f
8:50am 5ft 19s 8s 16 18 mph 1021.9mb 55f 58f
7:50am 5ft 19s 7s 13 16 mph 1021.7mb 55f 57f
6:50am 4.5ft 19s 7s 11 16 mph 1021.6mb 55f 56f
5:50am 4.5ft 12s 7s 13 16 mph 1021.3mb 55f 56f
4:50am 4ft 13s 7s 13 18 mph 1021.3mb 55f 57f
3:50am 4.5ft 13s 8s 9 11 mph 1021.5mb 55f 56f
2:50am 4.5ft 14s 8s 7 11 mph 1021.8mb 55f 56f
1:50am 4.5ft 12s 8s 7 9 mph 1021.8mb 55f 56f
12:50am 4.5ft 13s 8s 11 13 mph 1021.8mb 55f 56f
Sun 02/07 11:50pm 5ft 12s 8s 7 9 mph 1022mb 55f 56f
10:50pm 5ft 14s 8s 4 9 mph 1022.3mb 56f 55f
9:50pm 4.5ft 11s 8s 4 7 mph 1022.4mb 56f 55f
8:50pm 5.5ft 11s 8s 2 4 mph 1022.6mb 56f 55f
7:50pm 5.5ft 11s 9s 2 4 mph 1022.6mb 56f 55f
6:50pm 6ft 11s 9s 4 7 mph 1022.5mb 56f 55f
5:50pm 6.5ft 11s 9s  -  2 mph 1022.2mb 56f 56f
4:50pm 5.5ft 11s 9s  -  2 mph 1022.1mb 57f 57f
3:50pm 5ft 11s 8s 7
mph
1021.8mb 58f 57f
2:50pm 5ft 12s 8s 4 7 mph 1021.7mb 58f 57f
1:50pm 5ft 12s 8s 2 4 mph 1022.1mb 58f 56f
12:50pm 5.5ft 12s 8s 2 4 mph 1023mb 57f 56f
11:50am 6ft 13s 8s  -  2 mph 1024mb 56f 56f
10:50am 5ft 13s 7s 2 4 mph 1024.6mb 55f 55f
9:50am 5ft 12s 8s  -  2 mph 1024.9mb 55f 56f
8:50am 5.5ft 13s 8s 2 4 mph 1024.9mb 55f 55f
7:50am 7ft 13s 9s  -  2 mph 1024.9mb 55f 54f
6:50am 7ft 13s 8s 2 4 mph 1024.7mb 55f 54f
5:50am 7ft 14s 8s 2 4 mph 1024.6mb 55f 54f
4:50am 7ft 13s 8s 2 4 mph 1024.9mb 55f 54f
3:50am 7.5ft 13s 8s 7
mph
1025.1mb 55f 55f
2:50am 8ft 13s 8s 11 13 mph 1025.5mb 55f 55f
1:50am 8ft 11s 8s 9 11 mph 1026.1mb 55f 55f
12:50am 8ft 11s 8s 13 18 mph 1025.8mb 55f 56f
Sat 02/06 11:50pm 8ft 12s 8s 16 18 mph 1026mb 55f 56f
10:50pm 8ft 11s 8s 16 20 mph 1026.4mb 55f 56f
9:50pm 7ft 12s 8s 18 20 mph 1026.7mb 55f 57f
8:50pm 7ft 12s 8s 18 22 mph 1026.6mb 55f 57f
7:50pm 6ft 13s 9s 18 20 mph 1026.6mb 55f 56f
6:50pm 5.5ft 13s 9s 16 18 mph 1026.9mb 55f 55f
5:50pm 5.5ft 13s 9s 7 9 mph 1026.9mb 56f 55f
4:50pm 6.5ft 13s 10s 7 9 mph 1027mb 55f 55f
3:50pm 6.5ft 14s 10s 7 9 mph 1027.3mb 56f 55f
2:50pm 7.5ft 14s 10s 4 7 mph 1027.5mb 56f 54f
1:50pm 6.5ft 14s 10s 9 11 mph 1028.3mb 56f 54f
12:50pm 7.5ft 14s 10s 2 4 mph 1028.8mb 55f 55f
11:50am 8ft 14s 10s 4 7 mph 1030mb 55f 53f
10:50am 8ft 14s 10s 9 11 mph 1030.4mb 55f 53f
9:50am 9.5ft 13s 11s 9 11 mph 1030.2mb 55f 52f
8:50am 9.5ft 14s 11s 4 7 mph 1029.8mb 54f 55f
7:50am 9ft 14s 10s 4 7 mph 1029.7mb 54f 54f
6:50am 9ft 12s 11s 7 9 mph 1029.8mb 54f 54f
5:50am 11ft 14s 11s 7 11 mph 1029.6mb 54f 53f